createdAt,value
2023-06-23T00:00:12.200Z,99573.34
2023-06-23T00:02:42.606Z,99566.63
2023-06-23T00:05:09.424Z,99562.05
2023-06-23T00:07:36.723Z,99561.80
2023-06-23T00:10:06.580Z,99562.58
2023-06-23T00:12:34.336Z,99561.15
2023-06-23T00:15:01.904Z,99559.48
2023-06-23T00:17:30.738Z,99558.98
2023-06-23T00:19:58.011Z,99558.33
2023-06-23T00:22:25.958Z,99553.96
2023-06-23T00:24:52.765Z,99551.36
2023-06-23T00:27:19.948Z,99549.25
2023-06-23T00:29:46.709Z,99551.42
2023-06-23T00:32:13.416Z,99552.45
2023-06-23T00:34:40.412Z,99547.38
2023-06-23T00:37:07.051Z,99542.73
2023-06-23T00:39:33.903Z,99542.09
2023-06-23T00:42:05.409Z,99543.15
2023-06-23T00:44:34.148Z,99543.27
2023-06-23T00:47:02.947Z,99541.48
2023-06-23T00:49:30.145Z,99544.30
2023-06-23T00:52:01.627Z,99544.67
2023-06-23T00:54:28.937Z,99544.69
2023-06-23T00:56:59.262Z,99545.39
2023-06-23T00:59:31.125Z,99541.05
2023-06-23T01:01:59.625Z,99538.69
2023-06-23T01:04:27.423Z,99541.84
2023-06-23T01:07:00.841Z,99542.46
2023-06-23T01:09:35.170Z,99544.55
2023-06-23T01:12:12.856Z,99544.14
2023-06-23T01:14:47.415Z,99537.71
2023-06-23T01:17:50.352Z,99543.00
2023-06-23T01:20:21.908Z,99541.13
2023-06-23T01:23:22.927Z,99539.20
2023-06-23T01:26:11.709Z,99535.52
2023-06-23T01:28:51.384Z,99540.21
2023-06-23T01:32:06.294Z,99543.07
2023-06-23T01:34:38.992Z,99549.82
2023-06-23T01:37:11.322Z,99547.79
2023-06-23T01:39:39.479Z,99549.92
2023-06-23T01:42:11.522Z,99552.27
2023-06-23T01:44:39.789Z,99550.40
2023-06-23T01:47:11.535Z,99557.36
2023-06-23T01:49:38.082Z,99555.79
2023-06-23T01:52:07.515Z,99557.05
2023-06-23T01:54:34.864Z,99557.25
2023-06-23T01:57:01.714Z,99559.70
2023-06-23T01:59:28.470Z,99564.42
2023-06-23T02:01:55.462Z,99568.97
2023-06-23T02:04:22.454Z,99569.48
2023-06-23T02:06:49.331Z,99569.70
2023-06-23T02:09:19.742Z,99566.74
2023-06-23T02:11:46.503Z,99570.23
2023-06-23T02:14:13.219Z,99567.27
2023-06-23T02:16:39.959Z,99561.27
2023-06-23T02:19:06.989Z,99561.17
2023-06-23T02:21:33.947Z,99561.44
2023-06-23T02:24:06.215Z,99562.55
2023-06-23T02:26:34.208Z,99561.62
2023-06-23T02:29:01.509Z,99564.73
2023-06-23T02:31:28.337Z,99567.52
2023-06-23T02:33:55.411Z,99564.73
2023-06-23T02:36:23.149Z,99562.77
2023-06-23T02:38:50.357Z,99562.73
2023-06-23T02:41:19.539Z,99559.71
2023-06-23T02:43:55.305Z,99562.58
2023-06-23T02:46:24.954Z,99561.45
2023-06-23T02:48:54.358Z,99561.79
2023-06-23T02:51:22.307Z,99564.40
2023-06-23T02:53:51.060Z,99566.66
2023-06-23T02:56:20.084Z,99562.79
2023-06-23T02:58:48.142Z,99562.38
2023-06-23T03:01:15.660Z,99554.41
2023-06-23T03:03:42.503Z,99555.15
2023-06-23T03:06:22.462Z,99548.85
2023-06-23T03:08:50.503Z,99545.85
2023-06-23T03:11:18.818Z,99547.17
2023-06-23T03:13:47.305Z,99540.98
2023-06-23T03:16:27.902Z,99544.17
2023-06-23T03:19:00.717Z,99539.14
2023-06-23T03:21:29.448Z,99537.23
2023-06-23T03:23:56.166Z,99540.04
2023-06-23T03:26:23.002Z,99543.52
2023-06-23T03:28:50.196Z,99541.28
2023-06-23T03:31:17.164Z,99536.05
2023-06-23T03:33:45.213Z,99533.88
2023-06-23T03:36:15.831Z,99530.38
2023-06-23T03:39:02.970Z,99526.45
2023-06-23T03:41:31.748Z,99525.58
2023-06-23T03:44:00.322Z,99520.55
2023-06-23T03:46:29.242Z,99521.82
2023-06-23T03:48:57.411Z,99524.27
2023-06-23T03:51:25.015Z,99521.14
2023-06-23T03:53:51.573Z,99523.56
2023-06-23T03:56:18.063Z,99521.98
2023-06-23T03:58:45.492Z,99517.45
2023-06-23T04:01:13.375Z,99520.52
2023-06-23T04:03:40.416Z,99512.05
2023-06-23T04:06:07.978Z,99514.27
2023-06-23T04:08:35.175Z,99508.29
2023-06-23T04:11:01.808Z,99503.73
2023-06-23T04:13:30.163Z,99509.36
2023-06-23T04:15:57.418Z,99506.39
2023-06-23T04:18:27.280Z,99507.35
2023-06-23T04:20:54.457Z,99511.83
2023-06-23T04:23:21.150Z,99515.94
2023-06-23T04:25:49.086Z,99514.13
2023-06-23T04:28:16.708Z,99511.81
2023-06-23T04:30:44.294Z,99515.77
2023-06-23T04:33:11.313Z,99519.73
2023-06-23T04:35:38.718Z,99517.79
2023-06-23T04:38:13.458Z,99516.90
2023-06-23T04:41:00.822Z,99516.48
2023-06-23T04:43:38.399Z,99521.48
2023-06-23T04:46:17.091Z,99516.80
2023-06-23T04:48:57.321Z,99517.45
2023-06-23T04:51:29.232Z,99513.43
2023-06-23T04:53:58.749Z,99518.69
2023-06-23T04:56:28.208Z,99515.09
2023-06-23T04:58:56.441Z,99508.69
2023-06-23T05:01:23.004Z,99510.27
2023-06-23T05:03:49.606Z,99508.40
2023-06-23T05:06:19.594Z,99500.80
2023-06-23T05:08:47.898Z,99504.23
2023-06-23T05:11:14.958Z,99506.77
2023-06-23T05:13:41.835Z,99505.78
2023-06-23T05:16:11.258Z,99507.30
2023-06-23T05:18:39.146Z,99507.31
2023-06-23T05:21:05.864Z,99507.91
2023-06-23T05:23:48.674Z,99510.60
2023-06-23T05:26:20.383Z,99512.69
2023-06-23T05:28:47.425Z,99512.52
2023-06-23T05:31:14.338Z,99509.28
2023-06-23T05:33:42.556Z,99508.90
2023-06-23T05:36:11.326Z,99500.05
2023-06-23T05:38:37.949Z,99502.65
2023-06-23T05:41:04.549Z,99504.38
2023-06-23T05:43:32.378Z,99505.47
2023-06-23T05:45:58.994Z,99505.48
2023-06-23T05:48:37.746Z,99506.80
2023-06-23T05:51:06.974Z,99503.70
2023-06-23T05:53:33.496Z,99503.77
2023-06-23T05:56:03.605Z,99503.56
2023-06-23T05:58:32.326Z,99498.19
2023-06-23T06:01:00.323Z,99500.05
2023-06-23T06:03:30.350Z,99501.63
2023-06-23T06:05:57.273Z,99501.59
2023-06-23T06:08:25.321Z,99498.34
2023-06-23T06:10:52.057Z,99499.88
2023-06-23T06:13:18.952Z,99493.88
2023-06-23T06:15:45.641Z,99491.77
2023-06-23T06:18:15.401Z,99488.27
2023-06-23T06:20:46.433Z,99487.32
2023-06-23T06:23:24.571Z,99485.60
2023-06-23T06:25:55.770Z,99486.25
2023-06-23T06:28:24.576Z,99481.22
2023-06-23T06:30:51.426Z,99480.56
2023-06-23T06:33:18.267Z,99474.77
2023-06-23T06:35:44.812Z,99472.26
2023-06-23T06:38:11.979Z,99471.60
2023-06-23T06:40:39.484Z,99465.79
2023-06-23T06:43:06.035Z,99462.83
2023-06-23T06:45:35.473Z,99469.54
2023-06-23T06:48:04.088Z,99474.30
2023-06-23T06:50:31.865Z,99466.37
2023-06-23T06:52:58.903Z,99464.42
2023-06-23T06:55:25.643Z,99465.46
2023-06-23T06:57:52.491Z,99463.03
2023-06-23T07:00:20.278Z,99466.25
2023-06-23T07:02:47.095Z,99464.50
2023-06-23T07:05:14.280Z,99464.16
2023-06-23T07:07:42.633Z,99462.10
2023-06-23T07:10:09.481Z,99464.90
2023-06-23T07:12:38.728Z,99458.63
2023-06-23T07:15:08.290Z,99449.77
2023-06-23T07:17:36.989Z,99446.09
2023-06-23T07:20:05.448Z,99444.85
2023-06-23T07:22:33.707Z,99443.73
2023-06-23T07:25:00.181Z,99445.34
2023-06-23T07:27:27.106Z,99444.54
2023-06-23T07:29:53.791Z,99444.25
2023-06-23T07:32:20.387Z,99440.59
2023-06-23T07:34:47.063Z,99441.08
2023-06-23T07:37:13.581Z,99446.61
2023-06-23T07:39:40.165Z,99443.13
2023-06-23T07:42:07.106Z,99436.81
2023-06-23T07:44:35.974Z,99435.63
2023-06-23T07:47:04.107Z,99437.80
2023-06-23T07:49:30.940Z,99436.36
2023-06-23T07:52:00.910Z,99432.21
2023-06-23T07:54:28.673Z,99433.41
2023-06-23T07:56:55.527Z,99435.30
2023-06-23T07:59:22.857Z,99433.17
2023-06-23T08:01:49.392Z,99438.19
2023-06-23T08:04:16.298Z,99433.20
2023-06-23T08:06:43.255Z,99430.02
2023-06-23T08:09:10.157Z,99425.99
2023-06-23T08:11:36.714Z,99421.17
2023-06-23T08:14:03.382Z,99419.33
2023-06-23T08:16:30.382Z,99413.64
2023-06-23T08:18:57.172Z,99409.02
2023-06-23T08:21:23.717Z,99418.05
2023-06-23T08:23:50.539Z,99415.61
2023-06-23T08:26:23.115Z,99414.89
2023-06-23T08:28:49.765Z,99409.95
2023-06-23T08:31:16.970Z,99405.59
2023-06-23T08:33:43.691Z,99405.16
2023-06-23T08:36:10.503Z,99407.08
2023-06-23T08:38:37.593Z,99407.41
2023-06-23T08:41:04.228Z,99400.61
2023-06-23T08:43:31.346Z,99402.65
2023-06-23T08:45:59.231Z,99405.61
2023-06-23T08:48:26.857Z,99401.45
2023-06-23T08:50:54.639Z,99399.35
2023-06-23T08:53:23.360Z,99391.77
2023-06-23T08:55:51.015Z,99390.45
2023-06-23T08:58:21.735Z,99389.77
2023-06-23T09:00:53.405Z,99382.80
2023-06-23T09:03:22.962Z,99386.48
2023-06-23T09:05:49.802Z,99388.68
2023-06-23T09:08:16.633Z,99390.69
2023-06-23T09:10:43.587Z,99385.17
2023-06-23T09:13:15.040Z,99380.16
2023-06-23T09:16:00.191Z,99377.91
2023-06-23T09:18:39.652Z,99376.20
2023-06-23T09:21:06.723Z,99371.44
2023-06-23T09:23:34.394Z,99367.35
2023-06-23T09:26:04.037Z,99363.70
2023-06-23T09:28:32.754Z,99362.41
2023-06-23T09:31:00.725Z,99355.45
2023-06-23T09:33:27.955Z,99362.20
2023-06-23T09:35:56.181Z,99363.90
2023-06-23T09:38:25.188Z,99359.55
2023-06-23T09:41:03.358Z,99360.06
2023-06-23T09:43:37.879Z,99365.91
2023-06-23T09:46:11.333Z,99368.21
2023-06-23T09:48:40.679Z,99368.56
2023-06-23T09:51:07.257Z,99359.63
2023-06-23T09:53:37.746Z,99359.66
2023-06-23T09:56:05.142Z,99353.22
2023-06-23T09:58:32.969Z,99351.32
2023-06-23T10:01:01.731Z,99346.81
2023-06-23T10:03:31.674Z,99344.27
2023-06-23T10:05:59.443Z,99345.00
2023-06-23T10:08:29.390Z,99344.42
2023-06-23T10:10:56.712Z,99341.98
2023-06-23T10:13:23.491Z,99342.88
2023-06-23T10:15:50.158Z,99342.84
2023-06-23T10:18:17.388Z,99344.95
2023-06-23T10:20:44.522Z,99340.59
2023-06-23T10:23:11.901Z,99343.96
2023-06-23T10:25:38.486Z,99342.27
2023-06-23T10:28:09.405Z,99342.84
2023-06-23T10:30:36.495Z,99341.30
2023-06-23T10:33:03.637Z,99341.17
2023-06-23T10:35:31.026Z,99338.45
2023-06-23T10:38:04.131Z,99342.63
2023-06-23T10:40:37.135Z,99341.70
2023-06-23T10:43:03.749Z,99341.82
2023-06-23T10:45:30.366Z,99338.83
2023-06-23T10:47:57.012Z,99339.73
2023-06-23T10:50:24.323Z,99341.84
2023-06-23T10:52:51.136Z,99340.49
2023-06-23T10:55:48.569Z,99334.94
2023-06-23T10:58:29.488Z,99340.02
2023-06-23T11:00:56.625Z,99337.98
2023-06-23T11:03:36.658Z,99339.77
2023-06-23T11:06:08.013Z,99341.73
2023-06-23T11:08:35.960Z,99335.21
2023-06-23T11:11:09.952Z,99337.91
2023-06-23T11:13:42.344Z,99340.54
2023-06-23T11:16:15.254Z,99336.42
2023-06-23T11:18:52.042Z,99338.98
2023-06-23T11:21:28.184Z,99336.52
2023-06-23T11:24:20.121Z,99334.11
2023-06-23T11:26:49.984Z,99330.50
2023-06-23T11:29:19.804Z,99331.99
2023-06-23T11:32:03.570Z,99331.02
2023-06-23T11:34:31.376Z,99329.23
2023-06-23T11:36:59.627Z,99326.81
2023-06-23T11:39:26.498Z,99325.56
2023-06-23T11:41:53.113Z,99317.06
2023-06-23T11:44:21.482Z,99311.91
2023-06-23T11:46:51.353Z,99312.36
2023-06-23T11:49:17.893Z,99315.15
2023-06-23T11:51:44.464Z,99315.32
2023-06-23T11:54:11.154Z,99312.97
2023-06-23T11:56:40.634Z,99310.35
2023-06-23T11:59:09.515Z,99302.07
2023-06-23T12:01:36.570Z,99297.55
2023-06-23T12:04:06.503Z,99300.27
2023-06-23T12:06:37.249Z,99298.46
2023-06-23T12:09:04.240Z,99299.46
2023-06-23T12:11:33.139Z,99290.50
2023-06-23T12:14:01.053Z,99289.25
2023-06-23T12:16:36.628Z,99284.20
2023-06-23T12:19:03.512Z,99284.66
2023-06-23T12:21:30.352Z,99280.47
2023-06-23T12:23:57.254Z,99274.03
2023-06-23T12:26:23.826Z,99271.08
2023-06-23T12:28:50.355Z,99269.72
2023-06-23T12:31:28.778Z,99265.08
2023-06-23T12:34:00.402Z,99264.90
2023-06-23T12:36:27.168Z,99262.69
2023-06-23T12:38:57.123Z,99266.48
2023-06-23T12:41:25.222Z,99271.06
2023-06-23T12:44:03.805Z,99274.91
2023-06-23T12:46:33.549Z,99275.60
2023-06-23T12:49:00.606Z,99280.38
2023-06-23T12:51:34.530Z,99284.85
2023-06-23T12:54:01.651Z,99291.63
2023-06-23T12:56:28.221Z,99292.95
2023-06-23T12:58:55.234Z,99294.89
2023-06-23T13:01:23.041Z,99295.86
2023-06-23T13:03:50.457Z,99299.45
2023-06-23T13:06:17.489Z,99296.92
2023-06-23T13:08:46.449Z,99298.23
2023-06-23T13:11:12.981Z,99302.46
2023-06-23T13:13:41.526Z,99295.08
2023-06-23T13:16:08.419Z,99291.70
2023-06-23T13:18:35.314Z,99294.10
2023-06-23T13:21:02.224Z,99294.30
2023-06-23T13:23:29.064Z,99297.27
2023-06-23T13:25:55.727Z,99292.34
2023-06-23T13:28:23.711Z,99290.84
2023-06-23T13:30:50.471Z,99290.67
2023-06-23T13:33:19.894Z,99287.51
2023-06-23T13:35:46.611Z,99283.45
2023-06-23T13:38:13.133Z,99280.46
2023-06-23T13:40:40.860Z,99276.73
2023-06-23T13:43:07.575Z,99276.34
2023-06-23T13:45:34.901Z,99277.27
2023-06-23T13:48:01.775Z,99274.06
2023-06-23T13:50:28.610Z,99268.48
2023-06-23T13:52:55.237Z,99266.33
2023-06-23T13:55:22.058Z,99265.06
2023-06-23T13:57:48.967Z,99262.76
2023-06-23T14:00:16.085Z,99256.27
2023-06-23T14:02:42.914Z,99261.11
2023-06-23T14:05:09.577Z,99263.46
2023-06-23T14:07:37.691Z,99255.96
2023-06-23T14:10:06.517Z,99254.77
2023-06-23T14:12:34.537Z,99260.02
2023-06-23T14:15:01.137Z,99260.42
2023-06-23T14:17:30.396Z,99261.70
2023-06-23T14:19:57.040Z,99257.98
2023-06-23T14:22:25.045Z,99260.61
2023-06-23T14:24:51.625Z,99267.13
2023-06-23T14:27:18.187Z,99267.66
2023-06-23T14:29:45.003Z,99268.73
2023-06-23T14:32:11.692Z,99269.59
2023-06-23T14:34:38.759Z,99268.44
2023-06-23T14:37:06.046Z,99271.92
2023-06-23T14:39:32.740Z,99271.73
2023-06-23T14:41:59.205Z,99272.02
2023-06-23T14:44:27.249Z,99270.45
2023-06-23T14:46:57.076Z,99272.59
2023-06-23T14:49:24.201Z,99270.05
2023-06-23T14:51:50.830Z,99267.42
2023-06-23T14:54:18.148Z,99265.48
2023-06-23T14:56:45.882Z,99267.45
2023-06-23T14:59:13.432Z,99266.64
2023-06-23T15:01:40.318Z,99264.38
2023-06-23T15:04:06.957Z,99265.96
2023-06-23T15:06:33.828Z,99262.88
2023-06-23T15:09:00.617Z,99264.10
2023-06-23T15:11:28.446Z,99262.10
2023-06-23T15:13:55.248Z,99253.98
2023-06-23T15:16:22.414Z,99254.13
2023-06-23T15:18:48.933Z,99254.43
2023-06-23T15:21:15.532Z,99253.35
2023-06-23T15:23:42.441Z,99254.52
2023-06-23T15:26:08.943Z,99256.58
2023-06-23T15:28:36.714Z,99258.33
2023-06-23T15:31:03.273Z,99252.65
2023-06-23T15:33:29.769Z,99249.92
2023-06-23T15:35:56.335Z,99246.23
2023-06-23T15:38:24.306Z,99248.63
2023-06-23T15:40:50.641Z,99248.32
2023-06-23T15:43:17.157Z,99249.68
2023-06-23T15:45:44.568Z,99251.70
2023-06-23T15:48:11.741Z,99252.27
2023-06-23T15:50:38.487Z,99250.38
2023-06-23T15:53:05.152Z,99248.78
2023-06-23T15:55:32.051Z,99244.91
2023-06-23T15:57:58.875Z,99241.23
2023-06-23T16:00:25.620Z,99237.38
2023-06-23T16:02:52.539Z,99240.48
2023-06-23T16:05:19.524Z,99242.71
2023-06-23T16:07:46.244Z,99247.20
2023-06-23T16:10:12.705Z,99244.77
2023-06-23T16:12:40.390Z,99244.33
2023-06-23T16:15:07.209Z,99246.37
2023-06-23T16:17:33.678Z,99242.41
2023-06-23T16:20:00.612Z,99242.07
2023-06-23T16:22:27.499Z,99247.30
2023-06-23T16:24:53.947Z,99243.61
2023-06-23T16:27:20.601Z,99250.94
2023-06-23T16:29:47.335Z,99254.27
2023-06-23T16:32:13.959Z,99254.80
2023-06-23T16:34:41.696Z,99254.41
2023-06-23T16:37:08.367Z,99257.27
2023-06-23T16:39:35.394Z,99260.42
2023-06-23T16:42:02.055Z,99264.39
2023-06-23T16:44:28.969Z,99268.73
2023-06-23T16:46:55.864Z,99269.48
2023-06-23T16:49:22.351Z,99272.14
2023-06-23T16:51:48.942Z,99274.35
2023-06-23T16:54:15.291Z,99276.70
2023-06-23T16:56:42.226Z,99277.77
2023-06-23T16:59:09.188Z,99280.77
2023-06-23T17:01:36.336Z,99281.91
2023-06-23T17:04:03.225Z,99278.20
2023-06-23T17:06:30.277Z,99275.36
2023-06-23T17:08:56.672Z,99271.71
2023-06-23T17:11:23.084Z,99268.00
2023-06-23T17:13:49.980Z,99267.99
2023-06-23T17:16:16.717Z,99264.41
2023-06-23T17:18:43.021Z,99259.95
2023-06-23T17:21:09.740Z,99257.10
2023-06-23T17:23:36.593Z,99257.59
2023-06-23T17:26:03.149Z,99262.98
2023-06-23T17:28:30.131Z,99261.88
2023-06-23T17:30:57.042Z,99261.33
2023-06-23T17:33:23.569Z,99261.87
2023-06-23T17:35:50.151Z,99264.78
2023-06-23T17:38:17.352Z,99265.95
2023-06-23T17:40:43.791Z,99264.08
2023-06-23T17:43:10.413Z,99258.61
2023-06-23T17:45:37.545Z,99252.31
2023-06-23T17:48:04.513Z,99252.28
2023-06-23T17:50:33.499Z,99244.38
2023-06-23T17:53:00.069Z,99243.60
2023-06-23T17:55:26.686Z,99239.66
2023-06-23T17:57:53.151Z,99236.48
2023-06-23T18:00:19.905Z,99232.74
2023-06-23T18:02:47.611Z,99220.19
2023-06-23T18:05:14.418Z,99215.49
2023-06-23T18:07:42.991Z,99210.41
2023-06-23T18:10:09.575Z,99202.29
2023-06-23T18:12:37.179Z,99204.16
2023-06-23T18:15:03.828Z,99206.44
2023-06-23T18:17:31.450Z,99195.25
2023-06-23T18:19:58.421Z,99196.54
2023-06-23T18:22:25.990Z,99203.30
2023-06-23T18:24:52.499Z,99199.45
2023-06-23T18:27:19.038Z,99194.48
2023-06-23T18:29:46.400Z,99196.92
2023-06-23T18:32:26.928Z,99196.24
2023-06-23T18:34:53.809Z,99195.79
2023-06-23T18:37:20.697Z,99199.20
2023-06-23T18:39:47.603Z,99196.66
2023-06-23T18:42:14.370Z,99202.05
2023-06-23T18:44:40.948Z,99207.11
2023-06-23T18:47:07.578Z,99210.13
2023-06-23T18:49:34.582Z,99210.99
2023-06-23T18:52:01.153Z,99215.63
2023-06-23T18:54:27.681Z,99221.67
2023-06-23T18:56:54.931Z,99224.67
2023-06-23T18:59:23.957Z,99228.72
2023-06-23T19:01:50.906Z,99237.58
2023-06-23T19:04:17.748Z,99242.27
2023-06-23T19:06:45.183Z,99244.77
2023-06-23T19:09:12.060Z,99254.58
2023-06-23T19:11:39.411Z,99256.25
2023-06-23T19:14:05.841Z,99259.42
2023-06-23T19:16:33.321Z,99256.36
2023-06-23T19:18:59.868Z,99260.70
2023-06-23T19:21:27.416Z,99265.96
2023-06-23T19:23:54.416Z,99270.59
2023-06-23T19:26:21.099Z,99274.85
2023-06-23T19:28:47.949Z,99274.99
2023-06-23T19:31:14.654Z,99276.54
2023-06-23T19:33:41.579Z,99278.17
2023-06-23T19:36:08.194Z,99284.63
2023-06-23T19:38:35.075Z,99283.94
2023-06-23T19:41:01.646Z,99287.94
2023-06-23T19:43:28.711Z,99292.59
2023-06-23T19:45:55.254Z,99297.05
2023-06-23T19:48:21.918Z,99298.59
2023-06-23T19:50:48.260Z,99295.42
2023-06-23T19:53:14.943Z,99295.80
2023-06-23T19:55:41.620Z,99298.02
2023-06-23T19:58:16.233Z,99298.89
2023-06-23T20:00:43.086Z,99303.11
2023-06-23T20:03:09.859Z,99308.55
2023-06-23T20:05:36.550Z,99310.32
2023-06-23T20:08:03.314Z,99311.92
2023-06-23T20:10:30.808Z,99310.68
2023-06-23T20:12:57.619Z,99309.21
2023-06-23T20:15:24.103Z,99313.74
2023-06-23T20:17:50.929Z,99312.09
2023-06-23T20:20:17.420Z,99314.79
2023-06-23T20:22:43.901Z,99319.09
2023-06-23T20:25:11.760Z,99316.96
2023-06-23T20:27:38.972Z,99316.20
2023-06-23T20:30:06.740Z,99318.64
2023-06-23T20:32:33.463Z,99319.14
2023-06-23T20:34:59.966Z,99315.48
2023-06-23T20:37:26.375Z,99309.51
2023-06-23T20:39:52.807Z,99308.34
2023-06-23T20:42:19.221Z,99313.70
2023-06-23T20:44:45.664Z,99316.94
2023-06-23T20:47:12.218Z,99316.90
2023-06-23T20:49:38.889Z,99318.70
2023-06-23T20:52:05.602Z,99316.45
2023-06-23T20:54:32.521Z,99317.91
2023-06-23T20:56:59.426Z,99320.95
2023-06-23T20:59:26.339Z,99322.91
2023-06-23T21:01:53.029Z,99316.86
2023-06-23T21:04:19.590Z,99318.30
2023-06-23T21:06:46.057Z,99311.81
2023-06-23T21:09:12.979Z,99317.70
2023-06-23T21:11:39.640Z,99319.86
2023-06-23T21:14:06.204Z,99316.48
2023-06-23T21:16:32.659Z,99312.05
2023-06-23T21:18:59.146Z,99310.19
2023-06-23T21:21:25.566Z,99306.98
2023-06-23T21:23:57.378Z,99308.65
2023-06-23T21:26:24.331Z,99311.70
2023-06-23T21:28:50.760Z,99313.69
2023-06-23T21:31:17.787Z,99311.34
2023-06-23T21:33:44.595Z,99311.85
2023-06-23T21:36:11.062Z,99314.58
2023-06-23T21:38:37.519Z,99313.15
2023-06-23T21:41:04.078Z,99312.35
2023-06-23T21:43:30.911Z,99308.80
2023-06-23T21:45:57.916Z,99309.90
2023-06-23T21:48:24.386Z,99311.87
2023-06-23T21:50:50.788Z,99312.03
2023-06-23T21:53:17.225Z,99316.29
2023-06-23T21:55:43.743Z,99319.33
2023-06-23T21:58:10.171Z,99315.63
2023-06-23T22:00:36.891Z,99319.48
2023-06-23T22:03:04.533Z,99319.97
2023-06-23T22:05:31.693Z,99312.05
2023-06-23T22:07:58.219Z,99302.40
2023-06-23T22:10:24.778Z,99298.91
2023-06-23T22:12:51.144Z,99303.16
2023-06-23T22:15:17.485Z,99303.89
2023-06-23T22:17:46.514Z,99306.19
2023-06-23T22:20:14.764Z,99303.42
2023-06-23T22:22:41.299Z,99301.70
2023-06-23T22:25:08.121Z,99304.88
2023-06-23T22:27:35.417Z,99303.05
2023-06-23T22:30:02.455Z,99303.73
2023-06-23T22:32:29.317Z,99305.13
2023-06-23T22:34:56.164Z,99301.76
2023-06-23T22:37:22.780Z,99305.23
2023-06-23T22:39:49.589Z,99303.47
2023-06-23T22:42:16.145Z,99307.71
2023-06-23T22:44:42.598Z,99304.36
2023-06-23T22:47:09.130Z,99302.21
2023-06-23T22:49:38.037Z,99298.08
2023-06-23T22:52:09.668Z,99294.25
2023-06-23T22:54:37.667Z,99296.50
2023-06-23T22:57:04.588Z,99296.11
2023-06-23T22:59:31.135Z,99293.86
2023-06-23T23:01:57.813Z,99291.27
2023-06-23T23:04:24.233Z,99290.29
2023-06-23T23:06:50.911Z,99289.44
2023-06-23T23:09:17.479Z,99284.25
2023-06-23T23:11:43.857Z,99284.45
2023-06-23T23:14:11.003Z,99286.29
2023-06-23T23:16:38.625Z,99287.07
2023-06-23T23:19:05.067Z,99291.90
2023-06-23T23:21:31.532Z,99288.29
2023-06-23T23:23:59.803Z,99287.33
2023-06-23T23:26:29.602Z,99284.96
2023-06-23T23:28:57.498Z,99283.29
2023-06-23T23:31:26.946Z,99283.74
2023-06-23T23:34:00.972Z,99280.04
2023-06-23T23:36:33.761Z,99278.59
2023-06-23T23:39:00.938Z,99278.48
2023-06-23T23:41:27.650Z,99278.19
2023-06-23T23:43:54.944Z,99281.10
2023-06-23T23:46:21.986Z,99280.98
2023-06-23T23:48:49.198Z,99280.06
2023-06-23T23:51:15.738Z,99279.33
2023-06-23T23:53:42.192Z,99282.48
2023-06-23T23:56:08.797Z,99287.20
2023-06-23T23:58:35.494Z,99291.17
